createdAt,value
2019-02-25T00:02:03.962Z,23.47
2019-02-25T00:04:32.213Z,11.53
2019-02-25T00:07:00.436Z,9.97
2019-02-25T00:09:28.697Z,14.37
2019-02-25T00:11:56.921Z,18.47
2019-02-25T00:14:25.172Z,13.40
2019-02-25T00:16:53.574Z,10.10
2019-02-25T00:19:21.830Z,13.07
2019-02-25T00:21:50.053Z,12.47
2019-02-25T00:24:18.306Z,12.33
2019-02-25T00:26:46.538Z,10.03
2019-02-25T00:29:14.817Z,12.10
2019-02-25T00:31:43.058Z,15.97
2019-02-25T00:34:11.305Z,9.93
2019-02-25T00:36:39.538Z,13.87
2019-02-25T00:39:08.545Z,13.67
2019-02-25T00:41:36.821Z,18.70
2019-02-25T00:44:05.137Z,12.93
2019-02-25T00:46:33.417Z,15.17
2019-02-25T00:49:01.713Z,13.40
2019-02-25T00:51:30.001Z,11.47
2019-02-25T00:53:58.214Z,14.23
2019-02-25T00:56:26.473Z,15.53
2019-02-25T00:58:54.697Z,10.83
2019-02-25T01:01:22.945Z,10.97
2019-02-25T01:03:51.177Z,11.43
2019-02-25T01:06:19.458Z,10.90
2019-02-25T01:08:47.678Z,10.87
2019-02-25T01:11:15.935Z,12.07
2019-02-25T01:13:44.154Z,11.60
2019-02-25T01:16:12.406Z,12.63
2019-02-25T01:18:40.634Z,12.27
2019-02-25T01:21:08.889Z,9.80
2019-02-25T01:23:37.113Z,11.23
2019-02-25T01:26:05.385Z,10.57
2019-02-25T01:28:33.628Z,12.40
2019-02-25T01:31:01.958Z,11.57
2019-02-25T01:33:30.202Z,9.83
2019-02-25T01:35:58.450Z,11.17
2019-02-25T01:38:26.697Z,11.73
2019-02-25T01:40:54.944Z,10.97
2019-02-25T01:43:23.237Z,10.83
2019-02-25T01:45:51.493Z,8.97
2019-02-25T01:48:19.721Z,12.90
2019-02-25T01:50:47.993Z,11.83
2019-02-25T01:53:16.212Z,11.17
2019-02-25T01:55:44.463Z,9.53
2019-02-25T01:58:12.705Z,11.97
2019-02-25T02:00:40.957Z,16.23
2019-02-25T02:03:09.195Z,10.83
2019-02-25T02:05:37.417Z,10.00
2019-02-25T02:08:05.700Z,14.70
2019-02-25T02:10:33.929Z,10.97
2019-02-25T02:13:02.177Z,12.50
2019-02-25T02:15:30.405Z,12.43
2019-02-25T02:17:58.672Z,9.43
2019-02-25T02:20:26.893Z,9.00
2019-02-25T02:22:55.146Z,9.97
2019-02-25T02:25:23.373Z,15.60
2019-02-25T02:27:51.633Z,11.40
2019-02-25T02:30:20.450Z,14.37
2019-02-25T02:32:48.709Z,16.10
2019-02-25T02:35:17.003Z,10.77
2019-02-25T02:37:45.297Z,22.87
2019-02-25T02:40:13.903Z,20.33
2019-02-25T02:42:46.761Z,15.47
2019-02-25T02:45:19.449Z,15.57
2019-02-25T02:47:55.198Z,14.53
2019-02-25T02:50:24.095Z,12.80
2019-02-25T02:52:52.354Z,14.40
2019-02-25T02:55:20.581Z,13.20
2019-02-25T02:57:48.854Z,12.03
2019-02-25T03:00:18.614Z,14.27
2019-02-25T03:02:46.866Z,11.90
2019-02-25T03:05:15.562Z,13.93
2019-02-25T03:07:43.889Z,12.33
2019-02-25T03:10:13.277Z,10.63
2019-02-25T03:12:41.533Z,12.60
2019-02-25T03:15:11.331Z,14.07
2019-02-25T03:17:39.580Z,9.97
2019-02-25T03:20:09.284Z,11.03
2019-02-25T03:22:37.509Z,17.23
2019-02-25T03:25:09.810Z,13.43
2019-02-25T03:27:38.033Z,10.93
2019-02-25T03:30:07.817Z,12.77
2019-02-25T03:32:36.038Z,13.43
2019-02-25T03:35:04.661Z,13.43
2019-02-25T03:37:32.886Z,10.83
2019-02-25T03:40:01.143Z,18.67
2019-02-25T03:42:29.360Z,13.07
2019-02-25T03:44:57.618Z,11.40
2019-02-25T03:47:25.845Z,12.40
2019-02-25T03:49:54.094Z,17.70
2019-02-25T03:52:22.321Z,11.33
2019-02-25T03:54:50.581Z,10.30
2019-02-25T03:57:18.808Z,15.73
2019-02-25T03:59:47.057Z,14.37
2019-02-25T04:02:15.280Z,12.67
2019-02-25T04:04:43.603Z,10.93
2019-02-25T04:07:11.893Z,13.17
2019-02-25T04:09:40.140Z,12.80
2019-02-25T04:12:08.361Z,11.13
2019-02-25T04:14:36.618Z,13.50
2019-02-25T04:17:04.846Z,11.30
2019-02-25T04:19:33.093Z,12.20
2019-02-25T04:22:01.318Z,14.57
2019-02-25T04:24:29.565Z,14.33
2019-02-25T04:26:57.789Z,17.67
2019-02-25T04:29:26.046Z,17.33
2019-02-25T04:31:54.264Z,11.60
2019-02-25T04:34:22.521Z,17.10
2019-02-25T04:36:50.746Z,14.73
2019-02-25T04:39:19.003Z,13.10
2019-02-25T04:41:47.225Z,14.57
2019-02-25T04:44:15.449Z,13.10
2019-02-25T04:46:43.702Z,13.77
2019-02-25T04:49:11.928Z,12.00
2019-02-25T04:51:40.173Z,14.17
2019-02-25T04:54:08.409Z,16.60
2019-02-25T04:56:36.644Z,19.20
2019-02-25T04:59:04.860Z,17.33
2019-02-25T05:01:33.114Z,14.90
2019-02-25T05:04:01.333Z,15.57
2019-02-25T05:06:29.593Z,16.10
2019-02-25T05:08:57.809Z,11.17
2019-02-25T05:11:27.701Z,14.93
2019-02-25T05:13:55.947Z,15.23
2019-02-25T05:16:24.186Z,17.27
2019-02-25T05:18:52.406Z,22.50
2019-02-25T05:21:20.653Z,16.63
2019-02-25T05:23:48.877Z,11.47
2019-02-25T05:26:17.135Z,13.70
2019-02-25T05:28:45.360Z,12.33
2019-02-25T05:31:13.622Z,20.53
2019-02-25T05:33:41.848Z,15.93
2019-02-25T05:36:10.103Z,15.37
2019-02-25T05:38:38.321Z,12.80
2019-02-25T05:41:06.577Z,19.17
2019-02-25T05:43:34.802Z,12.50
2019-02-25T05:46:03.058Z,25.63
2019-02-25T05:48:31.281Z,17.63
2019-02-25T05:50:59.507Z,16.37
2019-02-25T05:53:27.765Z,18.87
2019-02-25T05:55:56.002Z,15.83
2019-02-25T05:58:24.250Z,17.77
2019-02-25T06:00:52.479Z,17.70
2019-02-25T06:03:20.735Z,22.60
2019-02-25T06:05:48.962Z,18.83
2019-02-25T06:08:17.214Z,32.77
2019-02-25T06:10:45.462Z,13.37
2019-02-25T06:13:13.693Z,14.10
2019-02-25T06:15:41.921Z,18.13
2019-02-25T06:18:10.173Z,18.40
2019-02-25T06:20:38.402Z,13.87
2019-02-25T06:23:06.651Z,15.83
2019-02-25T06:25:34.880Z,15.37
2019-02-25T06:28:03.125Z,14.13
2019-02-25T06:30:31.349Z,12.43
2019-02-25T06:32:59.654Z,17.27
2019-02-25T06:35:27.838Z,21.73
2019-02-25T06:37:56.085Z,16.00
2019-02-25T06:40:24.314Z,15.77
2019-02-25T06:42:52.565Z,20.47
2019-02-25T06:45:22.361Z,18.30
2019-02-25T06:47:50.617Z,17.37
2019-02-25T06:50:18.837Z,16.30
2019-02-25T06:52:47.085Z,16.17
2019-02-25T06:55:15.784Z,14.40
2019-02-25T06:57:44.077Z,17.40
2019-02-25T07:00:16.639Z,16.03
2019-02-25T07:02:44.968Z,25.20
2019-02-25T07:05:32.789Z,17.47
2019-02-25T07:08:20.897Z,15.63
2019-02-25T07:10:50.765Z,19.33
2019-02-25T07:13:32.638Z,27.47
2019-02-25T07:16:19.016Z,22.23
2019-02-25T07:18:51.589Z,18.70
2019-02-25T07:21:27.646Z,17.60
2019-02-25T07:24:06.671Z,12.17
2019-02-25T07:26:39.229Z,12.43
2019-02-25T07:29:09.125Z,16.07
2019-02-25T07:31:54.406Z,16.03
2019-02-25T07:34:24.294Z,11.67
2019-02-25T07:36:56.933Z,9.97
2019-02-25T07:39:26.835Z,15.70
2019-02-25T07:41:56.697Z,15.27
2019-02-25T07:44:41.665Z,17.50
2019-02-25T07:47:26.874Z,15.00
2019-02-25T07:49:56.768Z,17.33
2019-02-25T07:52:32.425Z,14.47
2019-02-25T07:55:14.189Z,16.03
2019-02-25T07:57:44.054Z,15.57
2019-02-25T08:00:16.923Z,13.40
2019-02-25T08:02:56.033Z,20.80
2019-02-25T08:05:25.933Z,17.93
2019-02-25T08:08:14.241Z,13.50
2019-02-25T08:10:44.128Z,15.67
2019-02-25T08:13:13.997Z,17.47
2019-02-25T08:15:43.891Z,17.13
2019-02-25T08:18:19.600Z,23.97
2019-02-25T08:21:01.772Z,15.13
2019-02-25T08:23:31.629Z,25.50
2019-02-25T08:26:19.800Z,19.90
2019-02-25T08:28:58.329Z,19.10
2019-02-25T08:31:34.002Z,17.03
2019-02-25T08:34:03.957Z,14.73
2019-02-25T08:37:02.283Z,18.93
2019-02-25T08:39:31.702Z,20.40
2019-02-25T08:42:04.293Z,22.73
2019-02-25T08:44:40.193Z,18.93
2019-02-25T08:47:16.247Z,16.07
2019-02-25T08:49:46.489Z,20.20
2019-02-25T08:52:15.081Z,14.03
2019-02-25T08:54:43.298Z,18.37
2019-02-25T08:57:11.625Z,17.63
2019-02-25T08:59:39.837Z,17.07
2019-02-25T09:02:08.426Z,22.33
2019-02-25T09:04:36.974Z,29.33
2019-02-25T09:07:05.621Z,59.47
2019-02-25T09:09:34.170Z,42.67
2019-02-25T09:12:02.416Z,50.60
2019-02-25T09:14:30.966Z,21.70
2019-02-25T09:16:59.218Z,14.80
2019-02-25T09:19:27.761Z,14.77
2019-02-25T09:21:56.407Z,14.07
2019-02-25T09:24:24.957Z,19.23
2019-02-25T09:26:53.603Z,13.57
2019-02-25T09:29:22.156Z,11.33
2019-02-25T09:31:50.403Z,12.17
2019-02-25T09:34:18.950Z,15.73
2019-02-25T09:36:47.530Z,14.07
2019-02-25T09:39:16.848Z,13.97
2019-02-25T09:41:45.562Z,12.33
2019-02-25T09:44:14.177Z,13.27
2019-02-25T09:46:42.425Z,13.57
2019-02-25T09:49:10.972Z,15.53
2019-02-25T09:51:39.556Z,11.67
2019-02-25T09:54:08.109Z,12.37
2019-02-25T09:56:37.382Z,17.63
2019-02-25T09:59:06.210Z,16.03
2019-02-25T10:01:34.822Z,16.77
2019-02-25T10:04:03.401Z,16.77
2019-02-25T10:06:31.616Z,16.33
2019-02-25T10:08:59.864Z,20.03
2019-02-25T10:11:28.415Z,15.13
2019-02-25T10:13:56.989Z,12.57
2019-02-25T10:16:25.537Z,8.50
2019-02-25T10:18:54.115Z,18.77
2019-02-25T10:21:22.662Z,11.60
2019-02-25T10:23:51.241Z,10.70
2019-02-25T10:26:19.455Z,15.57
2019-02-25T10:28:48.040Z,10.30
2019-02-25T10:31:17.530Z,11.07
2019-02-25T10:33:46.171Z,16.33
2019-02-25T10:36:14.785Z,12.57
2019-02-25T10:38:43.363Z,11.03
2019-02-25T10:41:11.911Z,12.33
2019-02-25T10:43:40.490Z,13.00
2019-02-25T10:46:10.784Z,11.03
2019-02-25T10:48:39.265Z,20.20
2019-02-25T10:51:09.335Z,9.03
2019-02-25T10:53:38.025Z,21.60
2019-02-25T10:56:19.915Z,10.07
2019-02-25T10:58:48.841Z,10.20
2019-02-25T11:01:19.391Z,9.10
2019-02-25T11:03:48.264Z,10.17
2019-02-25T11:06:17.485Z,11.47
2019-02-25T11:08:47.771Z,7.57
2019-02-25T11:11:22.647Z,7.33
2019-02-25T11:13:50.816Z,9.47
2019-02-25T11:16:20.420Z,14.67
2019-02-25T11:18:50.613Z,16.33
2019-02-25T11:21:19.374Z,10.43
2019-02-25T11:23:49.221Z,17.00
2019-02-25T11:26:18.146Z,14.23
2019-02-25T11:28:46.725Z,10.93
2019-02-25T11:31:17.157Z,16.67
2019-02-25T11:33:45.502Z,11.60
2019-02-25T11:36:15.527Z,15.13
2019-02-25T11:38:44.345Z,11.13
2019-02-25T11:41:12.965Z,17.17
2019-02-25T11:43:43.341Z,11.60
2019-02-25T11:46:11.654Z,11.10
2019-02-25T11:48:40.234Z,10.77
2019-02-25T11:51:08.851Z,14.87
2019-02-25T11:53:37.060Z,9.80
2019-02-25T11:56:05.634Z,6.70
2019-02-25T11:58:34.184Z,8.00
2019-02-25T12:01:02.925Z,8.07
2019-02-25T12:03:31.473Z,6.50
2019-02-25T12:06:00.051Z,7.57
2019-02-25T12:08:28.607Z,5.67
2019-02-25T12:10:57.178Z,6.13
2019-02-25T12:13:25.797Z,7.67
2019-02-25T12:15:54.451Z,5.70
2019-02-25T12:18:23.000Z,6.57
2019-02-25T12:20:51.645Z,5.47
2019-02-25T12:23:20.194Z,6.07
2019-02-25T12:25:48.770Z,5.50
2019-02-25T12:28:17.317Z,5.83
2019-02-25T12:30:45.898Z,5.77
2019-02-25T12:33:14.445Z,5.70
2019-02-25T12:35:43.090Z,6.93
2019-02-25T12:38:11.639Z,21.57
2019-02-25T12:40:40.289Z,7.27
2019-02-25T12:43:08.507Z,6.03
2019-02-25T12:45:37.082Z,6.87
2019-02-25T12:48:05.634Z,5.83
2019-02-25T12:50:34.214Z,6.03
2019-02-25T12:53:02.429Z,6.80
2019-02-25T12:55:31.001Z,8.67
2019-02-25T12:57:59.553Z,7.23
2019-02-25T13:00:28.141Z,8.33
2019-02-25T13:02:56.696Z,6.93
2019-02-25T13:05:26.010Z,5.07
2019-02-25T13:07:54.586Z,5.63
2019-02-25T13:10:22.848Z,7.10
2019-02-25T13:12:51.884Z,6.47
2019-02-25T13:15:24.732Z,5.13
2019-02-25T13:17:52.945Z,7.43
2019-02-25T13:20:21.633Z,6.33
2019-02-25T13:22:50.356Z,6.27
2019-02-25T13:25:24.697Z,5.73
2019-02-25T13:27:54.274Z,4.67
2019-02-25T13:30:22.874Z,5.13
2019-02-25T13:32:51.463Z,5.90
2019-02-25T13:35:20.077Z,4.87
2019-02-25T13:37:48.723Z,5.40
2019-02-25T13:40:18.020Z,5.23
2019-02-25T13:42:46.600Z,6.80
2019-02-25T13:45:16.686Z,6.80
2019-02-25T13:47:45.261Z,4.77
2019-02-25T13:50:14.153Z,4.57
2019-02-25T13:52:48.255Z,4.73
2019-02-25T13:55:13.742Z,4.10
2019-02-25T13:57:42.385Z,3.80
2019-02-25T14:00:19.391Z,3.90
2019-02-25T14:02:47.699Z,3.93
2019-02-25T14:05:16.510Z,4.17
2019-02-25T14:07:45.258Z,3.83
2019-02-25T14:10:15.014Z,4.13
2019-02-25T14:12:43.330Z,5.40
2019-02-25T14:15:14.949Z,5.17
2019-02-25T14:17:43.279Z,4.53
2019-02-25T14:20:14.161Z,6.37
2019-02-25T14:22:42.809Z,5.20
2019-02-25T14:25:14.065Z,5.23
2019-02-25T14:27:42.782Z,9.40
2019-02-25T14:30:21.974Z,7.50
2019-02-25T14:32:53.029Z,6.57
2019-02-25T14:35:29.032Z,8.07
2019-02-25T14:38:02.464Z,8.50
2019-02-25T14:40:32.120Z,9.77
2019-02-25T14:43:00.557Z,6.53
2019-02-25T14:45:32.129Z,7.60
2019-02-25T14:48:03.213Z,8.77
2019-02-25T14:50:31.066Z,7.50
2019-02-25T14:53:00.733Z,7.90
2019-02-25T14:55:29.573Z,6.77
2019-02-25T14:58:02.195Z,6.07
2019-02-25T15:00:31.419Z,9.03
2019-02-25T15:02:58.950Z,5.73
2019-02-25T15:05:27.239Z,8.80
2019-02-25T15:07:56.256Z,7.47
2019-02-25T15:10:28.990Z,5.77
2019-02-25T15:12:58.735Z,4.97
2019-02-25T15:15:24.303Z,5.50
2019-02-25T15:17:52.952Z,6.00
2019-02-25T15:20:23.521Z,5.23
2019-02-25T15:22:52.880Z,6.77
2019-02-25T15:25:21.805Z,11.23
2019-02-25T15:27:50.425Z,6.10
2019-02-25T15:30:27.061Z,5.87
2019-02-25T15:32:58.494Z,9.13
2019-02-25T15:35:28.851Z,12.30
2019-02-25T15:37:55.430Z,5.37
2019-02-25T15:40:25.498Z,6.67
2019-02-25T15:43:17.558Z,15.53
2019-02-25T15:45:45.481Z,11.57
2019-02-25T15:48:19.441Z,7.23
2019-02-25T15:50:50.683Z,7.03
2019-02-25T15:53:19.973Z,6.23
2019-02-25T15:55:48.600Z,6.60
2019-02-25T15:58:18.110Z,6.80
2019-02-25T16:00:47.467Z,6.33
2019-02-25T16:03:18.389Z,5.53
2019-02-25T16:05:46.545Z,11.47
2019-02-25T16:08:18.974Z,6.83
2019-02-25T16:10:47.012Z,9.50
2019-02-25T16:13:16.830Z,12.87
2019-02-25T16:15:45.480Z,13.87
2019-02-25T16:18:14.198Z,8.50
2019-02-25T16:20:45.929Z,9.97
2019-02-25T16:23:13.357Z,29.90
2019-02-25T16:25:42.258Z,19.67
2019-02-25T16:28:12.578Z,15.03
2019-02-25T16:30:42.443Z,18.63
2019-02-25T16:33:12.633Z,26.57
2019-02-25T16:35:43.045Z,12.17
2019-02-25T16:38:11.758Z,9.73
2019-02-25T16:40:40.329Z,7.77
2019-02-25T16:43:12.070Z,6.43
2019-02-25T16:45:41.861Z,6.00
2019-02-25T16:48:09.894Z,6.37
2019-02-25T16:50:39.797Z,6.60
2019-02-25T16:53:10.961Z,6.37
2019-02-25T16:55:40.476Z,8.53
2019-02-25T16:58:12.598Z,15.50
2019-02-25T17:00:41.626Z,10.77
2019-02-25T17:03:11.231Z,6.03
2019-02-25T17:05:42.303Z,10.53
2019-02-25T17:08:12.689Z,5.03
2019-02-25T17:10:41.535Z,7.43
2019-02-25T17:13:10.885Z,6.20
2019-02-25T17:15:40.477Z,5.87
2019-02-25T17:18:09.404Z,15.37
2019-02-25T17:20:38.037Z,5.03
2019-02-25T17:23:09.562Z,5.40
2019-02-25T17:25:38.909Z,6.77
2019-02-25T17:28:08.165Z,12.70
2019-02-25T17:30:40.540Z,17.43
2019-02-25T17:33:10.018Z,7.73
2019-02-25T17:35:39.106Z,6.33
2019-02-25T17:38:07.726Z,11.10
2019-02-25T17:40:36.301Z,11.47
2019-02-25T17:43:05.021Z,10.20
2019-02-25T17:45:34.485Z,13.50
2019-02-25T17:48:06.018Z,12.80
2019-02-25T17:50:36.594Z,10.50
2019-02-25T17:53:05.060Z,8.90
2019-02-25T17:55:36.218Z,8.93
2019-02-25T17:58:05.238Z,15.10
2019-02-25T18:00:39.541Z,20.87
2019-02-25T18:03:08.957Z,17.03
2019-02-25T18:05:40.059Z,16.03
2019-02-25T18:08:10.560Z,16.90
2019-02-25T18:10:39.282Z,17.03
2019-02-25T18:13:08.684Z,11.00
2019-02-25T18:15:38.267Z,12.90
2019-02-25T18:18:09.299Z,16.00
2019-02-25T18:20:38.925Z,7.53
2019-02-25T18:23:07.404Z,9.30
2019-02-25T18:25:37.627Z,5.67
2019-02-25T18:28:06.383Z,11.27
2019-02-25T18:30:35.813Z,11.43
2019-02-25T18:33:05.357Z,11.47
2019-02-25T18:35:36.243Z,10.47
2019-02-25T18:38:06.969Z,10.10
2019-02-25T18:40:35.840Z,13.63
2019-02-25T18:43:06.541Z,11.20
2019-02-25T18:45:36.136Z,11.80
2019-02-25T18:48:07.042Z,12.33
2019-02-25T18:50:36.029Z,8.83
2019-02-25T18:53:05.171Z,14.37
2019-02-25T18:55:34.305Z,10.97
2019-02-25T18:58:05.109Z,8.63
2019-02-25T19:00:45.323Z,6.27
2019-02-25T19:03:13.407Z,8.07
2019-02-25T19:05:42.133Z,10.77
2019-02-25T19:08:22.722Z,14.57
2019-02-25T19:10:52.695Z,7.07
2019-02-25T19:13:23.279Z,7.37
2019-02-25T19:15:53.092Z,8.60
2019-02-25T19:18:22.154Z,7.67
2019-02-25T19:20:51.033Z,8.47
2019-02-25T19:23:19.810Z,9.87
2019-02-25T19:25:48.355Z,8.20
2019-02-25T19:28:18.878Z,8.57
2019-02-25T19:30:46.548Z,11.33
2019-02-25T19:33:19.498Z,12.17
2019-02-25T19:35:45.451Z,8.97
2019-02-25T19:38:15.303Z,24.43
2019-02-25T19:40:46.614Z,46.40
2019-02-25T19:43:14.761Z,36.40
2019-02-25T19:45:45.338Z,18.50
2019-02-25T19:48:13.710Z,14.10
2019-02-25T19:50:50.680Z,9.53
2019-02-25T19:53:14.698Z,11.10
2019-02-25T19:55:43.992Z,11.00
2019-02-25T19:58:13.029Z,10.00
2019-02-25T20:00:41.602Z,8.97
2019-02-25T20:03:10.321Z,12.43
2019-02-25T20:05:41.665Z,10.87
2019-02-25T20:08:08.910Z,15.03
2019-02-25T20:10:37.161Z,10.37
2019-02-25T20:13:08.506Z,9.97
2019-02-25T20:15:39.656Z,10.97
2019-02-25T20:18:07.661Z,10.10
2019-02-25T20:20:38.479Z,13.97
2019-02-25T20:23:08.510Z,28.00
2019-02-25T20:25:37.090Z,32.17
2019-02-25T20:28:05.717Z,15.50
2019-02-25T20:30:34.362Z,10.43
2019-02-25T20:33:03.838Z,12.00
2019-02-25T20:35:33.140Z,7.90
2019-02-25T20:38:04.642Z,10.47
2019-02-25T20:40:33.027Z,11.37
2019-02-25T20:43:03.184Z,10.17
2019-02-25T20:45:35.386Z,18.23
2019-02-25T20:48:04.637Z,18.80
2019-02-25T20:50:33.487Z,13.30
2019-02-25T20:53:05.580Z,13.50
2019-02-25T20:55:34.500Z,17.33
2019-02-25T20:58:02.530Z,17.90
2019-02-25T21:00:34.837Z,12.83
2019-02-25T21:03:01.077Z,20.13
2019-02-25T21:05:29.625Z,12.67
2019-02-25T21:07:59.771Z,13.33
2019-02-25T21:10:29.919Z,12.37
2019-02-25T21:12:59.682Z,11.50
2019-02-25T21:15:27.681Z,11.40
2019-02-25T21:17:57.742Z,12.53
2019-02-25T21:20:28.965Z,11.83
2019-02-25T21:22:57.819Z,18.13
2019-02-25T21:25:29.090Z,13.37
2019-02-25T21:27:59.247Z,11.50
2019-02-25T21:30:27.361Z,12.53
2019-02-25T21:32:57.202Z,12.77
2019-02-25T21:35:28.252Z,18.30
2019-02-25T21:37:56.470Z,11.30
2019-02-25T21:40:27.803Z,17.20
2019-02-25T21:42:56.702Z,14.03
2019-02-25T21:45:29.029Z,12.93
2019-02-25T21:47:56.527Z,13.27
2019-02-25T21:50:28.811Z,13.83
2019-02-25T21:52:56.465Z,12.73
2019-02-25T21:55:27.470Z,14.97
2019-02-25T21:57:56.886Z,13.27
2019-02-25T22:00:27.141Z,18.63
2019-02-25T22:02:56.263Z,15.77
2019-02-25T22:05:27.283Z,17.30
2019-02-25T22:07:57.761Z,21.97
2019-02-25T22:10:26.200Z,15.27
2019-02-25T22:12:54.795Z,17.27
2019-02-25T22:15:23.021Z,18.10
2019-02-25T22:17:53.401Z,21.20
2019-02-25T22:20:24.289Z,18.27
2019-02-25T22:22:54.941Z,16.70
2019-02-25T22:25:23.125Z,15.83
2019-02-25T22:27:51.702Z,21.93
2019-02-25T22:30:20.318Z,18.30
2019-02-25T22:32:48.968Z,18.37
2019-02-25T22:35:17.515Z,20.73
2019-02-25T22:37:49.270Z,18.47
2019-02-25T22:40:19.362Z,19.43
2019-02-25T22:42:50.056Z,19.43
2019-02-25T22:45:19.114Z,22.17
2019-02-25T22:47:48.049Z,16.37
2019-02-25T22:50:16.280Z,17.60
2019-02-25T22:52:44.594Z,21.83
2019-02-25T22:55:15.175Z,19.50
2019-02-25T22:57:43.913Z,23.33
2019-02-25T23:00:14.709Z,18.57
2019-02-25T23:02:44.957Z,16.70
2019-02-25T23:05:14.596Z,14.57
2019-02-25T23:07:44.161Z,14.00
2019-02-25T23:10:13.318Z,17.00
2019-02-25T23:12:42.613Z,14.97
2019-02-25T23:15:11.302Z,19.37
2019-02-25T23:17:40.678Z,15.97
2019-02-25T23:20:10.591Z,15.30
2019-02-25T23:22:39.338Z,14.10
2019-02-25T23:25:10.093Z,14.40
2019-02-25T23:27:38.978Z,18.67
2019-02-25T23:30:09.097Z,14.20
2019-02-25T23:32:39.402Z,18.97
2019-02-25T23:35:11.464Z,15.10
2019-02-25T23:37:39.302Z,14.23
2019-02-25T23:40:09.642Z,17.37
2019-02-25T23:42:40.107Z,16.07
2019-02-25T23:45:15.321Z,15.03
2019-02-25T23:47:43.446Z,19.13
2019-02-25T23:50:13.706Z,15.07
2019-02-25T23:52:42.423Z,12.90
2019-02-25T23:55:14.389Z,14.73
2019-02-25T23:57:41.989Z,10.90
